sensor_id;sensor_type;location;lat;lon;timestamp;pressure;altitude;pressure_sealevel;temperature;humidity
70952;BME280;69214;55.880;37.542;2023-09-19T00:02:03;99381.03;;;9.45;77.24
70952;BME280;69214;55.880;37.542;2023-09-19T00:04:33;99399.56;;;9.55;77.32
70952;BME280;69214;55.880;37.542;2023-09-19T00:06:59;99363.09;;;9.37;76.48
70952;BME280;69214;55.880;37.542;2023-09-19T00:09:25;99403.22;;;9.67;76.28
70952;BME280;69214;55.880;37.542;2023-09-19T00:11:54;99366.97;;;9.48;76.58
70952;BME280;69214;55.880;37.542;2023-09-19T00:14:20;99389.81;;;9.65;76.03
70952;BME280;69214;55.880;37.542;2023-09-19T00:16:45;99393.97;;;9.68;76.94
70952;BME280;69214;55.880;37.542;2023-09-19T00:19:15;99358.88;;;9.41;76.38
70952;BME280;69214;55.880;37.542;2023-09-19T00:21:42;99333.69;;;9.28;76.09
70952;BME280;69214;55.880;37.542;2023-09-19T00:24:08;99356.22;;;9.35;76.55
70952;BME280;69214;55.880;37.542;2023-09-19T00:26:35;99299.19;;;9.03;76.92
70952;BME280;69214;55.880;37.542;2023-09-19T00:29:01;99383.63;;;9.58;75.91
70952;BME280;69214;55.880;37.542;2023-09-19T00:31:34;99349.50;;;9.37;75.92
70952;BME280;69214;55.880;37.542;2023-09-19T00:34:03;99388.69;;;9.55;75.87
70952;BME280;69214;55.880;37.542;2023-09-19T00:36:30;99372.03;;;9.45;76.48
70952;BME280;69214;55.880;37.542;2023-09-19T00:38:55;99366.22;;;9.41;75.70
70952;BME280;69214;55.880;37.542;2023-09-19T00:41:21;99348.06;;;9.35;75.55
70952;BME280;69214;55.880;37.542;2023-09-19T00:43:47;99394.59;;;9.52;76.26
70952;BME280;69214;55.880;37.542;2023-09-19T00:46:17;99353.56;;;9.28;75.95
70952;BME280;69214;55.880;37.542;2023-09-19T00:48:43;99389.59;;;9.49;76.00
70952;BME280;69214;55.880;37.542;2023-09-19T00:51:10;99360.53;;;9.24;76.25
70952;BME280;69214;55.880;37.542;2023-09-19T00:53:37;99388.66;;;9.36;76.35
70952;BME280;69214;55.880;37.542;2023-09-19T00:56:05;99361.06;;;9.33;76.40
70952;BME280;69214;55.880;37.542;2023-09-19T00:58:33;99299.78;;;8.87;75.57
70952;BME280;69214;55.880;37.542;2023-09-19T01:01:01;99381.72;;;9.40;75.51
70952;BME280;69214;55.880;37.542;2023-09-19T01:03:33;99395.03;;;9.49;76.04
70952;BME280;69214;55.880;37.542;2023-09-19T01:06:00;99340.78;;;9.11;76.21
70952;BME280;69214;55.880;37.542;2023-09-19T01:08:29;99315.59;;;8.97;75.85
70952;BME280;69214;55.880;37.542;2023-09-19T01:10:59;99370.91;;;9.34;74.58
70952;BME280;69214;55.880;37.542;2023-09-19T01:13:47;99395.09;;;9.42;75.21
70952;BME280;69214;55.880;37.542;2023-09-19T01:16:35;99384.06;;;9.37;74.98
70952;BME280;69214;55.880;37.542;2023-09-19T01:22:21;99381.78;;;9.34;75.23
70952;BME280;69214;55.880;37.542;2023-09-19T01:25:20;99388.44;;;9.38;75.74
70952;BME280;69214;55.880;37.542;2023-09-19T01:30:27;99373.09;;;9.25;76.17
70952;BME280;69214;55.880;37.542;2023-09-19T01:32:57;99373.09;;;9.25;76.10
70952;BME280;69214;55.880;37.542;2023-09-19T01:35:25;99383.28;;;9.30;75.71
70952;BME280;69214;55.880;37.542;2023-09-19T01:37:51;99352.72;;;9.09;75.11
70952;BME280;69214;55.880;37.542;2023-09-19T01:40:21;99350.16;;;9.15;75.78
70952;BME280;69214;55.880;37.542;2023-09-19T01:43:27;99380.06;;;9.39;74.60
70952;BME280;69214;55.880;37.542;2023-09-19T01:46:15;99365.53;;;9.46;74.92
70952;BME280;69214;55.880;37.542;2023-09-19T01:51:53;99341.09;;;9.21;74.58
70952;BME280;69214;55.880;37.542;2023-09-19T01:54:27;99350.56;;;9.36;75.09
70952;BME280;69214;55.880;37.542;2023-09-19T01:57:09;99363.03;;;9.44;75.71
70952;BME280;69214;55.880;37.542;2023-09-19T01:59:53;99349.41;;;9.44;74.95
70952;BME280;69214;55.880;37.542;2023-09-19T02:02:20;99364.47;;;9.47;74.10
70952;BME280;69214;55.880;37.542;2023-09-19T02:04:48;99353.81;;;9.45;74.62
70952;BME280;69214;55.880;37.542;2023-09-19T02:07:16;99281.25;;;8.96;75.38
70952;BME280;69214;55.880;37.542;2023-09-19T02:09:42;99322.47;;;9.18;75.71
70952;BME280;69214;55.880;37.542;2023-09-19T02:12:09;99343.75;;;9.27;74.26
70952;BME280;69214;55.880;37.542;2023-09-19T02:14:35;99345.47;;;9.22;75.59
70952;BME280;69214;55.880;37.542;2023-09-19T02:17:04;99318.00;;;9.05;75.51
70952;BME280;69214;55.880;37.542;2023-09-19T02:19:35;99264.22;;;8.64;74.90
70952;BME280;69214;55.880;37.542;2023-09-19T02:22:02;99342.88;;;9.08;77.17
70952;BME280;69214;55.880;37.542;2023-09-19T02:24:33;99348.19;;;9.03;76.50
70952;BME280;69214;55.880;37.542;2023-09-19T02:27:00;99316.53;;;8.84;76.54
70952;BME280;69214;55.880;37.542;2023-09-19T02:29:30;99283.09;;;8.59;76.81
70952;BME280;69214;55.880;37.542;2023-09-19T02:31:56;99320.63;;;8.75;75.93
70952;BME280;69214;55.880;37.542;2023-09-19T02:34:22;99339.75;;;8.87;75.51
70952;BME280;69214;55.880;37.542;2023-09-19T02:36:48;99309.63;;;8.63;74.99
70952;BME280;69214;55.880;37.542;2023-09-19T02:39:15;99341.31;;;8.76;76.85
70952;BME280;69214;55.880;37.542;2023-09-19T02:41:41;99324.50;;;8.61;78.29
70952;BME280;69214;55.880;37.542;2023-09-19T02:44:07;99342.88;;;8.65;76.81
70952;BME280;69214;55.880;37.542;2023-09-19T02:46:34;99255.72;;;8.04;77.89
70952;BME280;69214;55.880;37.542;2023-09-19T02:49:03;99287.50;;;8.28;77.78
70952;BME280;69214;55.880;37.542;2023-09-19T02:51:32;99335.44;;;8.54;77.55
70952;BME280;69214;55.880;37.542;2023-09-19T02:54:00;99336.94;;;8.50;77.50
70952;BME280;69214;55.880;37.542;2023-09-19T02:56:26;99292.59;;;8.18;78.14
70952;BME280;69214;55.880;37.542;2023-09-19T02:58:52;99305.97;;;8.20;78.12
70952;BME280;69214;55.880;37.542;2023-09-19T03:01:18;99309.25;;;8.28;78.50
70952;BME280;69214;55.880;37.542;2023-09-19T03:03:45;99345.88;;;8.57;79.07
70952;BME280;69214;55.880;37.542;2023-09-19T03:06:11;99306.03;;;8.44;78.37
70952;BME280;69214;55.880;37.542;2023-09-19T03:08:39;99346.16;;;8.74;78.54
70952;BME280;69214;55.880;37.542;2023-09-19T03:11:06;99334.16;;;8.82;77.75
70952;BME280;69214;55.880;37.542;2023-09-19T03:13:33;99258.19;;;8.37;77.08
70952;BME280;69214;55.880;37.542;2023-09-19T03:16:00;99347.84;;;8.93;77.08
70952;BME280;69214;55.880;37.542;2023-09-19T03:18:27;99332.66;;;8.86;77.40
70952;BME280;69214;55.880;37.542;2023-09-19T03:20:54;99322.38;;;8.88;77.37
70952;BME280;69214;55.880;37.542;2023-09-19T03:23:27;99291.19;;;8.65;77.20
70952;BME280;69214;55.880;37.542;2023-09-19T03:25:54;99266.84;;;8.52;78.42
70952;BME280;69214;55.880;37.542;2023-09-19T03:28:22;99337.59;;;8.95;78.69
70952;BME280;69214;55.880;37.542;2023-09-19T03:31:01;99348.34;;;9.08;78.41
70952;BME280;69214;55.880;37.542;2023-09-19T03:33:29;99343.50;;;9.11;77.86
70952;BME280;69214;55.880;37.542;2023-09-19T03:36:00;99324.66;;;9.09;77.02
70952;BME280;69214;55.880;37.542;2023-09-19T03:38:27;99302.13;;;9.02;77.29
70952;BME280;69214;55.880;37.542;2023-09-19T03:40:54;99336.63;;;9.26;76.47
70952;BME280;69214;55.880;37.542;2023-09-19T03:43:20;99325.88;;;9.13;76.59
70952;BME280;69214;55.880;37.542;2023-09-19T03:45:46;99248.06;;;8.69;77.24
70952;BME280;69214;55.880;37.542;2023-09-19T03:48:13;99340.19;;;9.27;75.73
70952;BME280;69214;55.880;37.542;2023-09-19T03:50:39;99266.50;;;8.85;76.10
70952;BME280;69214;55.880;37.542;2023-09-19T03:53:05;99277.19;;;8.87;75.74
70952;BME280;69214;55.880;37.542;2023-09-19T03:55:33;99306.69;;;9.08;75.50
70952;BME280;69214;55.880;37.542;2023-09-19T03:58:05;99330.81;;;9.23;75.50
70952;BME280;69214;55.880;37.542;2023-09-19T04:00:31;99313.63;;;9.22;75.90
70952;BME280;69214;55.880;37.542;2023-09-19T04:02:58;99312.56;;;9.23;75.83
70952;BME280;69214;55.880;37.542;2023-09-19T04:05:26;99327.31;;;9.34;75.03
70952;BME280;69214;55.880;37.542;2023-09-19T04:07:52;99305.84;;;9.26;75.99
70952;BME280;69214;55.880;37.542;2023-09-19T04:10:19;99321.34;;;9.44;76.18
70952;BME280;69214;55.880;37.542;2023-09-19T04:12:53;99267.13;;;9.24;75.32
70952;BME280;69214;55.880;37.542;2023-09-19T04:15:19;99321.47;;;9.67;74.49
70952;BME280;69214;55.880;37.542;2023-09-19T04:17:45;99294.59;;;9.70;74.90
70952;BME280;69214;55.880;37.542;2023-09-19T04:20:11;99312.91;;;9.82;74.92
70952;BME280;69214;55.880;37.542;2023-09-19T04:22:40;99319.91;;;9.89;74.97
70952;BME280;69214;55.880;37.542;2023-09-19T04:25:06;99301.75;;;9.83;74.84
70952;BME280;69214;55.880;37.542;2023-09-19T04:27:33;99268.28;;;9.64;75.15
70952;BME280;69214;55.880;37.542;2023-09-19T04:29:59;99318.31;;;10.00;74.25
70952;BME280;69214;55.880;37.542;2023-09-19T04:32:28;99259.88;;;9.66;74.42
70952;BME280;69214;55.880;37.542;2023-09-19T04:34:55;99311.66;;;9.96;74.91
70952;BME280;69214;55.880;37.542;2023-09-19T04:37:26;99245.75;;;9.57;74.54
70952;BME280;69214;55.880;37.542;2023-09-19T04:39:51;99307.03;;;9.96;74.54
70952;BME280;69214;55.880;37.542;2023-09-19T04:42:17;99280.28;;;9.75;74.57
70952;BME280;69214;55.880;37.542;2023-09-19T04:44:45;99300.50;;;9.97;74.60
70952;BME280;69214;55.880;37.542;2023-09-19T04:47:11;99251.34;;;9.62;74.85
70952;BME280;69214;55.880;37.542;2023-09-19T04:49:38;99307.03;;;9.96;74.16
70952;BME280;69214;55.880;37.542;2023-09-19T04:52:05;99289.59;;;9.97;75.38
70952;BME280;69214;55.880;37.542;2023-09-19T04:54:32;99277.66;;;9.98;74.16
70952;BME280;69214;55.880;37.542;2023-09-19T04:56:59;99239.41;;;9.75;75.09
70952;BME280;69214;55.880;37.542;2023-09-19T04:59:26;99280.53;;;10.15;74.80
70952;BME280;69214;55.880;37.542;2023-09-19T05:01:54;99274.53;;;10.25;73.75
70952;BME280;69214;55.880;37.542;2023-09-19T05:04:20;99298.16;;;10.54;73.99
70952;BME280;69214;55.880;37.542;2023-09-19T05:06:46;99288.66;;;10.57;73.78
70952;BME280;69214;55.880;37.542;2023-09-19T05:09:11;99299.59;;;10.57;73.91
70952;BME280;69214;55.880;37.542;2023-09-19T05:11:37;99286.28;;;10.60;73.96
70952;BME280;69214;55.880;37.542;2023-09-19T05:14:04;99290.94;;;10.60;74.24
70952;BME280;69214;55.880;37.542;2023-09-19T05:16:30;99213.44;;;10.14;73.67
70952;BME280;69214;55.880;37.542;2023-09-19T05:18:59;99290.22;;;10.76;73.93
70952;BME280;69214;55.880;37.542;2023-09-19T05:21:28;99295.91;;;10.86;74.06
70952;BME280;69214;55.880;37.542;2023-09-19T05:23:55;99262.44;;;10.91;73.78
70952;BME280;69214;55.880;37.542;2023-09-19T05:26:22;99294.22;;;11.20;73.54
70952;BME280;69214;55.880;37.542;2023-09-19T05:28:48;99289.56;;;11.32;73.25
70952;BME280;69214;55.880;37.542;2023-09-19T05:31:13;99244.72;;;11.17;73.03
70952;BME280;69214;55.880;37.542;2023-09-19T05:33:41;99261.53;;;11.37;73.18
70952;BME280;69214;55.880;37.542;2023-09-19T05:36:08;99228.88;;;11.30;72.30
70952;BME280;69214;55.880;37.542;2023-09-19T05:38:36;99271.25;;;11.73;72.17
70952;BME280;69214;55.880;37.542;2023-09-19T05:41:02;99236.59;;;11.62;72.36
70952;BME280;69214;55.880;37.542;2023-09-19T05:43:28;99270.47;;;12.01;72.31
70952;BME280;69214;55.880;37.542;2023-09-19T05:45:54;99282.94;;;12.42;71.63
70952;BME280;69214;55.880;37.542;2023-09-19T05:48:22;99269.66;;;12.51;70.65
70952;BME280;69214;55.880;37.542;2023-09-19T05:50:48;99288.66;;;12.74;70.59
70952;BME280;69214;55.880;37.542;2023-09-19T05:53:15;99234.25;;;12.61;69.67
70952;BME280;69214;55.880;37.542;2023-09-19T05:55:41;99233.75;;;12.64;70.29
70952;BME280;69214;55.880;37.542;2023-09-19T05:58:07;99236.91;;;12.56;69.89
70952;BME280;69214;55.880;37.542;2023-09-19T06:00:34;99258.31;;;12.59;70.43
70952;BME280;69214;55.880;37.542;2023-09-19T06:03:00;99260.53;;;12.62;70.47
70952;BME280;69214;55.880;37.542;2023-09-19T06:05:27;99255.81;;;13.13;70.44
70952;BME280;69214;55.880;37.542;2023-09-19T06:07:53;99264.94;;;14.75;68.26
70952;BME280;69214;55.880;37.542;2023-09-19T06:10:20;99270.84;;;16.84;62.94
70952;BME280;69214;55.880;37.542;2023-09-19T06:12:47;99277.44;;;18.72;58.48
70952;BME280;69214;55.880;37.542;2023-09-19T06:15:15;99265.75;;;20.88;53.19
70952;BME280;69214;55.880;37.542;2023-09-19T06:17:46;99268.25;;;23.16;49.20
70952;BME280;69214;55.880;37.542;2023-09-19T06:20:12;99244.50;;;24.67;46.00
70952;BME280;69214;55.880;37.542;2023-09-19T06:22:41;99255.06;;;25.26;44.59
70952;BME280;69214;55.880;37.542;2023-09-19T06:25:13;99258.81;;;25.30;45.03
70952;BME280;69214;55.880;37.542;2023-09-19T06:27:50;99255.03;;;25.34;42.72
70952;BME280;69214;55.880;37.542;2023-09-19T06:30:22;99238.13;;;25.69;42.53
70952;BME280;69214;55.880;37.542;2023-09-19T06:32:55;99230.16;;;26.96;47.21
70952;BME280;69214;55.880;37.542;2023-09-19T06:35:21;99254.44;;;28.22;37.82
70952;BME280;69214;55.880;37.542;2023-09-19T06:37:47;99239.06;;;28.72;36.20
70952;BME280;69214;55.880;37.542;2023-09-19T06:40:14;99248.06;;;29.06;36.59
70952;BME280;69214;55.880;37.542;2023-09-19T06:42:45;99250.84;;;29.49;34.62
70952;BME280;69214;55.880;37.542;2023-09-19T06:45:15;99247.09;;;29.92;34.68
70952;BME280;69214;55.880;37.542;2023-09-19T06:47:49;99252.63;;;29.89;40.74
70952;BME280;69214;55.880;37.542;2023-09-19T06:50:16;99254.56;;;29.69;34.69
70952;BME280;69214;55.880;37.542;2023-09-19T06:52:45;99265.00;;;29.53;35.17
70952;BME280;69214;55.880;37.542;2023-09-19T06:55:12;99268.81;;;29.01;34.96
70952;BME280;69214;55.880;37.542;2023-09-19T06:57:39;99267.31;;;28.11;36.95
70952;BME280;69214;55.880;37.542;2023-09-19T07:00:07;99261.78;;;27.29;38.02
70952;BME280;69214;55.880;37.542;2023-09-19T07:02:43;99269.22;;;26.59;43.35
70952;BME280;69214;55.880;37.542;2023-09-19T07:05:09;99261.16;;;25.57;39.80
70952;BME280;69214;55.880;37.542;2023-09-19T07:07:35;99258.25;;;24.98;40.52
70952;BME280;69214;55.880;37.542;2023-09-19T07:10:02;99251.34;;;24.87;42.31
70952;BME280;69214;55.880;37.542;2023-09-19T07:12:31;99242.03;;;24.57;42.40
70952;BME280;69214;55.880;37.542;2023-09-19T07:14:58;99244.47;;;24.07;43.04
70952;BME280;69214;55.880;37.542;2023-09-19T07:17:24;99254.84;;;23.58;43.38
70952;BME280;69214;55.880;37.542;2023-09-19T07:19:50;99253.66;;;23.50;43.50
70952;BME280;69214;55.880;37.542;2023-09-19T07:22:16;99257.47;;;23.54;43.54
70952;BME280;69214;55.880;37.542;2023-09-19T07:24:42;99264.88;;;23.68;43.75
70952;BME280;69214;55.880;37.542;2023-09-19T07:27:08;99245.50;;;22.92;44.31
70952;BME280;69214;55.880;37.542;2023-09-19T07:29:34;99249.75;;;22.09;46.43
70952;BME280;69214;55.880;37.542;2023-09-19T07:32:00;99233.00;;;21.18;48.21
70952;BME280;69214;55.880;37.542;2023-09-19T07:34:26;99262.84;;;21.94;47.40
70952;BME280;69214;55.880;37.542;2023-09-19T07:36:52;99255.13;;;22.86;45.75
70952;BME280;69214;55.880;37.542;2023-09-19T07:39:18;99252.94;;;23.36;44.05
70952;BME280;69214;55.880;37.542;2023-09-19T07:41:43;99252.72;;;22.93;44.92
70952;BME280;69214;55.880;37.542;2023-09-19T07:44:09;99252.06;;;22.29;46.38
70952;BME280;69214;55.880;37.542;2023-09-19T07:46:36;99240.75;;;21.62;47.56
70952;BME280;69214;55.880;37.542;2023-09-19T07:49:02;99209.56;;;21.10;48.47
70952;BME280;69214;55.880;37.542;2023-09-19T07:51:27;99238.44;;;21.09;48.80
70952;BME280;69214;55.880;37.542;2023-09-19T07:53:54;99223.75;;;20.95;49.24
70952;BME280;69214;55.880;37.542;2023-09-19T07:56:20;99231.88;;;21.05;49.19
70952;BME280;69214;55.880;37.542;2023-09-19T07:58:48;99230.94;;;21.10;48.96
70952;BME280;69214;55.880;37.542;2023-09-19T08:01:14;99231.88;;;21.05;48.80
70952;BME280;69214;55.880;37.542;2023-09-19T08:03:41;99235.16;;;20.80;49.56
70952;BME280;69214;55.880;37.542;2023-09-19T08:06:09;99231.16;;;20.53;50.12
70952;BME280;69214;55.880;37.542;2023-09-19T08:08:36;99230.13;;;20.12;50.94
70952;BME280;69214;55.880;37.542;2023-09-19T08:11:06;99229.78;;;19.57;52.09
70952;BME280;69214;55.880;37.542;2023-09-19T08:13:39;99234.41;;;18.90;53.58
70952;BME280;69214;55.880;37.542;2023-09-19T08:16:18;99237.66;;;18.34;54.97
70952;BME280;69214;55.880;37.542;2023-09-19T08:18:48;99237.28;;;18.06;55.56
70952;BME280;69214;55.880;37.542;2023-09-19T08:21:23;99235.75;;;17.85;56.17
70952;BME280;69214;55.880;37.542;2023-09-19T08:23:50;99235.25;;;17.78;56.72
70952;BME280;69214;55.880;37.542;2023-09-19T08:26:16;99237.19;;;17.77;56.52
70952;BME280;69214;55.880;37.542;2023-09-19T08:28:42;99221.56;;;17.53;57.55
70952;BME280;69214;55.880;37.542;2023-09-19T08:31:08;99221.63;;;17.32;58.23
70952;BME280;69214;55.880;37.542;2023-09-19T08:33:35;99221.69;;;17.22;58.39
70952;BME280;69214;55.880;37.542;2023-09-19T08:36:02;99212.88;;;17.15;58.48
70952;BME280;69214;55.880;37.542;2023-09-19T08:38:35;99181.25;;;16.92;57.73
70952;BME280;69214;55.880;37.542;2023-09-19T08:41:06;99198.34;;;16.84;57.36
70952;BME280;69214;55.880;37.542;2023-09-19T08:43:34;99178.00;;;16.49;59.75
70952;BME280;69214;55.880;37.542;2023-09-19T08:46:15;99196.47;;;16.44;59.43
70952;BME280;69214;55.880;37.542;2023-09-19T08:49:08;99198.13;;;16.30;58.84
70952;BME280;69214;55.880;37.542;2023-09-19T08:51:45;99170.59;;;16.04;59.27
70952;BME280;69214;55.880;37.542;2023-09-19T08:54:28;99204.44;;;16.20;59.31
70952;BME280;69214;55.880;37.542;2023-09-19T08:57:00;99197.84;;;16.21;60.56
70952;BME280;69214;55.880;37.542;2023-09-19T08:59:34;99208.03;;;16.20;61.09
70952;BME280;69214;55.880;37.542;2023-09-19T09:02:10;99188.47;;;16.12;60.37
70952;BME280;69214;55.880;37.542;2023-09-19T09:04:40;99187.09;;;16.04;60.82
70952;BME280;69214;55.880;37.542;2023-09-19T09:07:11;99201.69;;;16.10;60.41
70952;BME280;69214;55.880;37.542;2023-09-19T09:09:39;99207.47;;;16.08;61.21
70952;BME280;69214;55.880;37.542;2023-09-19T09:12:13;99193.16;;;16.06;60.69
70952;BME280;69214;55.880;37.542;2023-09-19T09:14:45;99195.09;;;16.11;60.41
70952;BME280;69214;55.880;37.542;2023-09-19T09:17:12;99196.47;;;16.18;61.61
70952;BME280;69214;55.880;37.542;2023-09-19T09:19:38;99172.50;;;16.24;61.67
70952;BME280;69214;55.880;37.542;2023-09-19T09:22:10;99192.31;;;16.46;60.21
70952;BME280;69214;55.880;37.542;2023-09-19T09:24:37;99197.56;;;16.53;60.69
70952;BME280;69214;55.880;37.542;2023-09-19T09:27:06;99205.81;;;16.53;60.20
70952;BME280;69214;55.880;37.542;2023-09-19T09:32:19;99190.41;;;16.47;59.56
70952;BME280;69214;55.880;37.542;2023-09-19T09:34:54;99199.75;;;16.51;60.27
70952;BME280;69214;55.880;37.542;2023-09-19T09:37:21;99197.84;;;16.67;60.79
70952;BME280;69214;55.880;37.542;2023-09-19T09:40:01;99200.28;;;16.89;59.67
70952;BME280;69214;55.880;37.542;2023-09-19T09:42:42;99181.19;;;17.12;60.13
70952;BME280;69214;55.880;37.542;2023-09-19T09:45:19;99187.38;;;17.43;58.30
70952;BME280;69214;55.880;37.542;2023-09-19T09:47:54;99178.53;;;17.52;59.51
70952;BME280;69214;55.880;37.542;2023-09-19T09:50:27;99170.19;;;17.62;58.86
70952;BME280;69214;55.880;37.542;2023-09-19T09:53:20;99174.75;;;17.87;58.08
70952;BME280;69214;55.880;37.542;2023-09-19T09:56:03;99174.78;;;17.82;58.06
70952;BME280;69214;55.880;37.542;2023-09-19T09:58:50;99134.34;;;17.57;58.71
70952;BME280;69214;55.880;37.542;2023-09-19T10:01:17;99177.03;;;18.13;58.62
70952;BME280;69214;55.880;37.542;2023-09-19T10:03:43;99171.19;;;18.49;57.48
70952;BME280;69214;55.880;37.542;2023-09-19T10:06:14;99171.91;;;18.65;56.93
70952;BME280;69214;55.880;37.542;2023-09-19T10:08:59;99172.50;;;18.62;57.21
70952;BME280;69214;55.880;37.542;2023-09-19T10:11:31;99161.88;;;18.40;57.72
70952;BME280;69214;55.880;37.542;2023-09-19T10:14:01;99158.88;;;18.36;58.49
70952;BME280;69214;55.880;37.542;2023-09-19T10:16:32;99140.47;;;18.27;58.40
70952;BME280;69214;55.880;37.542;2023-09-19T10:19:02;99146.28;;;18.54;58.20
70952;BME280;69214;55.880;37.542;2023-09-19T10:21:33;99124.63;;;18.66;57.26
70952;BME280;69214;55.880;37.542;2023-09-19T10:24:01;99053.31;;;18.39;57.21
70952;BME280;69214;55.880;37.542;2023-09-19T10:26:31;99144.50;;;18.92;57.21
70952;BME280;69214;55.880;37.542;2023-09-19T10:28:57;99128.69;;;18.98;57.16
70952;BME280;69214;55.880;37.542;2023-09-19T10:31:27;99131.84;;;19.10;57.00
70952;BME280;69214;55.880;37.542;2023-09-19T10:33:55;99130.53;;;19.26;57.05
70952;BME280;69214;55.880;37.542;2023-09-19T10:36:24;99134.56;;;19.58;56.15
70952;BME280;69214;55.880;37.542;2023-09-19T10:38:52;99131.13;;;19.85;55.49
70952;BME280;69214;55.880;37.542;2023-09-19T10:41:22;99128.66;;;20.16;55.15
70952;BME280;69214;55.880;37.542;2023-09-19T10:43:48;99130.78;;;20.37;54.33
70952;BME280;69214;55.880;37.542;2023-09-19T10:46:16;99083.94;;;20.22;53.81
70952;BME280;69214;55.880;37.542;2023-09-19T10:48:42;99132.41;;;20.57;53.54
70952;BME280;69214;55.880;37.542;2023-09-19T10:51:23;99077.03;;;20.39;54.27
70952;BME280;69214;55.880;37.542;2023-09-19T10:53:55;99125.81;;;20.81;53.67
70952;BME280;69214;55.880;37.542;2023-09-19T10:56:36;99119.47;;;20.80;54.23
70952;BME280;69214;55.880;37.542;2023-09-19T10:59:09;99122.84;;;21.05;53.97
70952;BME280;69214;55.880;37.542;2023-09-19T11:01:45;99111.09;;;21.49;53.42
70952;BME280;69214;55.880;37.542;2023-09-19T11:04:29;99109.56;;;21.79;52.68
70952;BME280;69214;55.880;37.542;2023-09-19T11:07:09;99119.63;;;22.11;52.34
70952;BME280;69214;55.880;37.542;2023-09-19T11:09:53;99119.69;;;22.19;51.88
70952;BME280;69214;55.880;37.542;2023-09-19T11:14:59;99113.72;;;21.90;51.43
70952;BME280;69214;55.880;37.542;2023-09-19T11:17:33;99112.88;;;21.67;52.77
70952;BME280;69214;55.880;37.542;2023-09-19T11:30:36;99108.44;;;21.02;53.89
70952;BME280;69214;55.880;37.542;2023-09-19T11:33:28;99090.06;;;20.93;54.40
70952;BME280;69214;55.880;37.542;2023-09-19T11:36:04;99098.09;;;20.81;54.62
70952;BME280;69214;55.880;37.542;2023-09-19T11:49:18;99079.41;;;20.13;56.49
70952;BME280;69214;55.880;37.542;2023-09-19T11:51:47;99075.72;;;20.17;56.37
70952;BME280;69214;55.880;37.542;2023-09-19T11:54:16;99072.75;;;20.14;56.29
70952;BME280;69214;55.880;37.542;2023-09-19T11:56:49;99069.84;;;20.05;56.73
70952;BME280;69214;55.880;37.542;2023-09-19T11:59:28;99066.78;;;20.07;56.62
70952;BME280;69214;55.880;37.542;2023-09-19T12:02:06;99069.44;;;20.12;56.03
70952;BME280;69214;55.880;37.542;2023-09-19T12:04:39;99062.97;;;20.02;56.86
70952;BME280;69214;55.880;37.542;2023-09-19T12:07:09;99070.66;;;20.05;57.10
70952;BME280;69214;55.880;37.542;2023-09-19T12:09:47;99053.84;;;20.02;56.93
70952;BME280;69214;55.880;37.542;2023-09-19T12:12:24;99060.19;;;20.02;56.72
70952;BME280;69214;55.880;37.542;2023-09-19T12:14:54;99045.31;;;19.98;57.15
70952;BME280;69214;55.880;37.542;2023-09-19T12:17:23;99056.50;;;20.07;57.25
70952;BME280;69214;55.880;37.542;2023-09-19T12:19:53;99049.63;;;20.04;57.08
70952;BME280;69214;55.880;37.542;2023-09-19T12:22:19;99049.03;;;20.08;57.67
70952;BME280;69214;55.880;37.542;2023-09-19T12:24:49;99041.22;;;20.10;57.78
70952;BME280;69214;55.880;37.542;2023-09-19T12:27:16;99032.91;;;20.10;57.73
70952;BME280;69214;55.880;37.542;2023-09-19T12:29:47;99036.72;;;20.14;57.24
70952;BME280;69214;55.880;37.542;2023-09-19T12:32:16;99037.31;;;20.11;57.69
70952;BME280;69214;55.880;37.542;2023-09-19T12:34:54;99032.91;;;20.10;57.22
70952;BME280;69214;55.880;37.542;2023-09-19T12:37:20;99037.94;;;20.08;58.05
70952;BME280;69214;55.880;37.542;2023-09-19T12:39:49;99023.34;;;20.02;57.85
70952;BME280;69214;55.880;37.542;2023-09-19T12:42:19;99027.47;;;20.04;57.74
70952;BME280;69214;55.880;37.542;2023-09-19T12:44:47;99030.44;;;20.08;58.05
70952;BME280;69214;55.880;37.542;2023-09-19T12:47:17;99023.38;;;20.16;58.10
70952;BME280;69214;55.880;37.542;2023-09-19T12:52:37;99013.03;;;20.21;57.83
70952;BME280;69214;55.880;37.542;2023-09-19T12:55:05;99006.47;;;20.17;58.48
70952;BME280;69214;55.880;37.542;2023-09-19T12:57:35;99014.66;;;20.22;58.06
70952;BME280;69214;55.880;37.542;2023-09-19T13:00:02;99016.84;;;20.25;57.97
70952;BME280;69214;55.880;37.542;2023-09-19T13:02:31;99009.84;;;20.28;58.57
70952;BME280;69214;55.880;37.542;2023-09-19T13:04:58;99006.78;;;20.29;58.44
70952;BME280;69214;55.880;37.542;2023-09-19T13:07:45;99013.03;;;20.35;57.69
70952;BME280;69214;55.880;37.542;2023-09-19T13:10:13;99005.47;;;20.41;58.82
70952;BME280;69214;55.880;37.542;2023-09-19T13:12:43;98991.09;;;20.39;58.18
70952;BME280;69214;55.880;37.542;2023-09-19T13:15:14;98998.41;;;20.48;58.32
70952;BME280;69214;55.880;37.542;2023-09-19T13:17:47;98993.88;;;20.52;58.24
70952;BME280;69214;55.880;37.542;2023-09-19T13:20:23;98999.13;;;20.54;58.23
70952;BME280;69214;55.880;37.542;2023-09-19T13:22:54;98997.78;;;20.51;58.27
70952;BME280;69214;55.880;37.542;2023-09-19T13:25:24;98996.75;;;20.47;58.21
70952;BME280;69214;55.880;37.542;2023-09-19T13:27:53;98986.59;;;20.43;58.31
70952;BME280;69214;55.880;37.542;2023-09-19T13:30:26;98991.31;;;20.42;58.45
70952;BME280;69214;55.880;37.542;2023-09-19T13:33:05;98992.50;;;20.36;58.17
70952;BME280;69214;55.880;37.542;2023-09-19T13:35:36;98987.59;;;20.33;58.99
70952;BME280;69214;55.880;37.542;2023-09-19T13:38:06;98982.16;;;20.28;58.99
70952;BME280;69214;55.880;37.542;2023-09-19T13:40:38;98970.34;;;20.22;58.69
70952;BME280;69214;55.880;37.542;2023-09-19T13:43:05;98987.06;;;20.31;59.01
70952;BME280;69214;55.880;37.542;2023-09-19T13:45:32;98969.00;;;20.20;59.13